sensor_id;sensor_type;location;lat;lon;timestamp;pressure;altitude;pressure_sealevel;temperature
20490;BMP280;10403;54.092;12.122;2022-08-20T00:01:54;101375.13;;;22.46
20490;BMP280;10403;54.092;12.122;2022-08-20T00:04:21;101386.44;;;22.51
20490;BMP280;10403;54.092;12.122;2022-08-20T00:06:50;101370.59;;;22.48
20490;BMP280;10403;54.092;12.122;2022-08-20T00:09:17;101367.78;;;22.51
20490;BMP280;10403;54.092;12.122;2022-08-20T00:11:44;101352.72;;;22.50
20490;BMP280;10403;54.092;12.122;2022-08-20T00:14:11;101340.63;;;22.43
20490;BMP280;10403;54.092;12.122;2022-08-20T00:16:38;101346.75;;;22.45
20490;BMP280;10403;54.092;12.122;2022-08-20T00:19:08;101357.19;;;22.50
20490;BMP280;10403;54.092;12.122;2022-08-20T00:21:36;101364.41;;;22.48
20490;BMP280;10403;54.092;12.122;2022-08-20T00:24:04;101356.41;;;22.48
20490;BMP280;10403;54.092;12.122;2022-08-20T00:26:32;101346.16;;;22.40
20490;BMP280;10403;54.092;12.122;2022-08-20T00:28:59;101355.88;;;22.41
20490;BMP280;10403;54.092;12.122;2022-08-20T00:31:27;101357.41;;;22.45
20490;BMP280;10403;54.092;12.122;2022-08-20T00:33:54;101362.66;;;22.47
20490;BMP280;10403;54.092;12.122;2022-08-20T00:36:21;101373.34;;;22.47
20490;BMP280;10403;54.092;12.122;2022-08-20T00:38:59;101377.81;;;22.46
20490;BMP280;10403;54.092;12.122;2022-08-20T00:41:32;101382.19;;;22.47
20490;BMP280;10403;54.092;12.122;2022-08-20T00:44:26;101378.06;;;22.42
20490;BMP280;10403;54.092;12.122;2022-08-20T00:46:53;101389.59;;;22.42
20490;BMP280;10403;54.092;12.122;2022-08-20T00:49:29;101393.72;;;22.48
20490;BMP280;10403;54.092;12.122;2022-08-20T00:52:04;101394.59;;;22.48
20490;BMP280;10403;54.092;12.122;2022-08-20T00:54:51;101408.06;;;22.45
20490;BMP280;10403;54.092;12.122;2022-08-20T00:57:34;101394.94;;;22.42
20490;BMP280;10403;54.092;12.122;2022-08-20T01:00:39;101408.00;;;22.47
20490;BMP280;10403;54.092;12.122;2022-08-20T01:03:09;101411.59;;;22.46
20490;BMP280;10403;54.092;12.122;2022-08-20T01:05:41;101392.34;;;22.41
20490;BMP280;10403;54.092;12.122;2022-08-20T01:08:12;101409.81;;;22.46
20490;BMP280;10403;54.092;12.122;2022-08-20T01:10:43;101414.34;;;22.44
20490;BMP280;10403;54.092;12.122;2022-08-20T01:13:16;101407.78;;;22.34
20490;BMP280;10403;54.092;12.122;2022-08-20T01:15:47;101415.88;;;22.33
20490;BMP280;10403;54.092;12.122;2022-08-20T01:18:25;101427.06;;;22.39
20490;BMP280;10403;54.092;12.122;2022-08-20T01:21:00;101419.16;;;22.38
20490;BMP280;10403;54.092;12.122;2022-08-20T01:24:01;101422.69;;;22.38
20490;BMP280;10403;54.092;12.122;2022-08-20T01:26:37;101417.34;;;22.38
20490;BMP280;10403;54.092;12.122;2022-08-20T01:29:15;101410.28;;;22.37
20490;BMP280;10403;54.092;12.122;2022-08-20T01:31:44;101404.97;;;22.37
20490;BMP280;10403;54.092;12.122;2022-08-20T01:34:16;101400.72;;;22.33
20490;BMP280;10403;54.092;12.122;2022-08-20T01:36:50;101407.47;;;22.40
20490;BMP280;10403;54.092;12.122;2022-08-20T01:39:24;101413.66;;;22.41
20490;BMP280;10403;54.092;12.122;2022-08-20T01:42:32;101418.13;;;22.40
20490;BMP280;10403;54.092;12.122;2022-08-20T01:45:23;101422.81;;;22.35
20490;BMP280;10403;54.092;12.122;2022-08-20T01:48:14;101425.41;;;22.37
20490;BMP280;10403;54.092;12.122;2022-08-20T01:50:52;101423.41;;;22.42
20490;BMP280;10403;54.092;12.122;2022-08-20T01:53:34;101412.09;;;22.37
20490;BMP280;10403;54.092;12.122;2022-08-20T01:56:08;101417.09;;;22.43
20490;BMP280;10403;54.092;12.122;2022-08-20T01:58:58;101404.88;;;22.39
20490;BMP280;10403;54.092;12.122;2022-08-20T02:01:37;101404.03;;;22.38
20490;BMP280;10403;54.092;12.122;2022-08-20T02:04:13;101418.28;;;22.37
20490;BMP280;10403;54.092;12.122;2022-08-20T02:06:47;101411.56;;;22.30
20490;BMP280;10403;54.092;12.122;2022-08-20T02:09:29;101411.38;;;22.33
20490;BMP280;10403;54.092;12.122;2022-08-20T02:11:58;101417.56;;;22.34
20490;BMP280;10403;54.092;12.122;2022-08-20T02:14:26;101404.34;;;22.32
20490;BMP280;10403;54.092;12.122;2022-08-20T02:16:54;101406.38;;;22.27
20490;BMP280;10403;54.092;12.122;2022-08-20T02:19:37;101414.16;;;22.32
20490;BMP280;10403;54.092;12.122;2022-08-20T02:22:16;101428.25;;;22.34
20490;BMP280;10403;54.092;12.122;2022-08-20T02:24:43;101422.22;;;22.30
20490;BMP280;10403;54.092;12.122;2022-08-20T02:27:11;101423.78;;;22.34
20490;BMP280;10403;54.092;12.122;2022-08-20T02:29:41;101416.09;;;22.28
20490;BMP280;10403;54.092;12.122;2022-08-20T02:32:08;101417.56;;;22.34
20490;BMP280;10403;54.092;12.122;2022-08-20T02:34:55;101404.66;;;22.26
20490;BMP280;10403;54.092;12.122;2022-08-20T02:37:22;101412.34;;;22.32
20490;BMP280;10403;54.092;12.122;2022-08-20T02:39:49;101402.84;;;22.27
20490;BMP280;10403;54.092;12.122;2022-08-20T02:42:36;101415.00;;;22.32
20490;BMP280;10403;54.092;12.122;2022-08-20T02:45:14;101401.84;;;22.29
20490;BMP280;10403;54.092;12.122;2022-08-20T02:47:45;101408.91;;;22.30
20490;BMP280;10403;54.092;12.122;2022-08-20T02:50:16;101411.31;;;22.35
20490;BMP280;10403;54.092;12.122;2022-08-20T02:52:44;101411.47;;;22.32
20490;BMP280;10403;54.092;12.122;2022-08-20T02:55:19;101415.69;;;22.36
20490;BMP280;10403;54.092;12.122;2022-08-20T02:57:58;101414.84;;;22.35
20490;BMP280;10403;54.092;12.122;2022-08-20T03:00:29;101407.78;;;22.34
20490;BMP280;10403;54.092;12.122;2022-08-20T03:03:06;101418.53;;;22.33
20490;BMP280;10403;54.092;12.122;2022-08-20T03:05:35;101418.53;;;22.33
20490;BMP280;10403;54.092;12.122;2022-08-20T03:08:07;101421.22;;;22.33
20490;BMP280;10403;54.092;12.122;2022-08-20T03:10:37;101416.72;;;22.33
20490;BMP280;10403;54.092;12.122;2022-08-20T03:13:06;101424.91;;;22.30
20490;BMP280;10403;54.092;12.122;2022-08-20T03:15:40;101424.97;;;22.29
20490;BMP280;10403;54.092;12.122;2022-08-20T03:18:09;101423.16;;;22.29
20490;BMP280;10403;54.092;12.122;2022-08-20T03:20:37;101418.91;;;22.25
20490;BMP280;10403;54.092;12.122;2022-08-20T03:23:05;101419.63;;;22.29
20490;BMP280;10403;54.092;12.122;2022-08-20T03:25:32;101406.38;;;22.27
20490;BMP280;10403;54.092;12.122;2022-08-20T03:28:00;101409.84;;;22.29
20490;BMP280;10403;54.092;12.122;2022-08-20T03:30:29;101405.53;;;22.27
20490;BMP280;10403;54.092;12.122;2022-08-20T03:32:56;101407.41;;;22.25
20490;BMP280;10403;54.092;12.122;2022-08-20T03:35:26;101408.09;;;22.28
20490;BMP280;10403;54.092;12.122;2022-08-20T03:37:54;101398.63;;;22.23
20490;BMP280;10403;54.092;12.122;2022-08-20T03:40:29;101413.50;;;22.27
20490;BMP280;10403;54.092;12.122;2022-08-20T03:42:57;101414.38;;;22.27
20490;BMP280;10403;54.092;12.122;2022-08-20T03:45:26;101412.66;;;22.26
20490;BMP280;10403;54.092;12.122;2022-08-20T03:47:54;101414.53;;;22.24
20490;BMP280;10403;54.092;12.122;2022-08-20T03:50:26;101415.47;;;22.23
20490;BMP280;10403;54.092;12.122;2022-08-20T03:52:55;101424.44;;;22.22
20490;BMP280;10403;54.092;12.122;2022-08-20T03:55:25;101409.59;;;22.17
20490;BMP280;10403;54.092;12.122;2022-08-20T03:57:58;101425.38;;;22.21
20490;BMP280;10403;54.092;12.122;2022-08-20T04:00:31;101425.44;;;22.20
20490;BMP280;10403;54.092;12.122;2022-08-20T04:02:58;101421.19;;;22.15
20490;BMP280;10403;54.092;12.122;2022-08-20T04:05:29;101424.56;;;22.19
20490;BMP280;10403;54.092;12.122;2022-08-20T04:08:01;101424.66;;;22.18
20490;BMP280;10403;54.092;12.122;2022-08-20T04:10:30;101429.13;;;22.17
20490;BMP280;10403;54.092;12.122;2022-08-20T04:12:58;101427.41;;;22.16
20490;BMP280;10403;54.092;12.122;2022-08-20T04:15:27;101428.66;;;22.09
20490;BMP280;10403;54.092;12.122;2022-08-20T04:17:54;101427.78;;;22.08
20490;BMP280;10403;54.092;12.122;2022-08-20T04:20:24;101442.59;;;22.14
20490;BMP280;10403;54.092;12.122;2022-08-20T04:22:56;101439.16;;;22.12
20490;BMP280;10403;54.092;12.122;2022-08-20T04:25:27;101440.09;;;22.11
20490;BMP280;10403;54.092;12.122;2022-08-20T04:27:59;101443.63;;;22.11
20490;BMP280;10403;54.092;12.122;2022-08-20T04:30:28;101462.22;;;22.13
20490;BMP280;10403;54.092;12.122;2022-08-20T04:32:55;101446.66;;;22.04
20490;BMP280;10403;54.092;12.122;2022-08-20T04:35:22;101464.97;;;22.11
20490;BMP280;10403;54.092;12.122;2022-08-20T04:37:59;101462.28;;;22.11
20490;BMP280;10403;54.092;12.122;2022-08-20T04:40:28;101467.69;;;22.10
20490;BMP280;10403;54.092;12.122;2022-08-20T04:43:14;101449.44;;;22.02
20490;BMP280;10403;54.092;12.122;2022-08-20T04:45:42;101466.97;;;22.06
20490;BMP280;10403;54.092;12.122;2022-08-20T04:48:10;101467.97;;;22.04
20490;BMP280;10403;54.092;12.122;2022-08-20T04:50:44;101465.50;;;22.01
20490;BMP280;10403;54.092;12.122;2022-08-20T04:53:16;101483.91;;;22.05
20490;BMP280;10403;54.092;12.122;2022-08-20T04:55:51;101475.03;;;22.05
20490;BMP280;10403;54.092;12.122;2022-08-20T04:58:33;101477.72;;;22.05
20490;BMP280;10403;54.092;12.122;2022-08-20T05:01:06;101482.97;;;22.06
20490;BMP280;10403;54.092;12.122;2022-08-20T05:03:36;101480.22;;;22.08
20490;BMP280;10403;54.092;12.122;2022-08-20T05:06:06;101473.97;;;22.09
20490;BMP280;10403;54.092;12.122;2022-08-20T05:11:03;101478.50;;;22.07
20490;BMP280;10403;54.092;12.122;2022-08-20T05:13:50;101478.50;;;22.07
20490;BMP280;10403;54.092;12.122;2022-08-20T05:16:19;101491.53;;;22.13
20490;BMP280;10403;54.092;12.122;2022-08-20T05:18:47;101480.09;;;22.11
20490;BMP280;10403;54.092;12.122;2022-08-20T05:21:20;101497.47;;;22.18
20490;BMP280;10403;54.092;12.122;2022-08-20T05:23:47;101485.25;;;22.14
20490;BMP280;10403;54.092;12.122;2022-08-20T05:26:16;101491.22;;;22.19
20490;BMP280;10403;54.092;12.122;2022-08-20T05:28:46;101497.16;;;22.24
20490;BMP280;10403;54.092;12.122;2022-08-20T05:31:28;101492.75;;;22.23
20490;BMP280;10403;54.092;12.122;2022-08-20T05:34:05;101483.22;;;22.19
20490;BMP280;10403;54.092;12.122;2022-08-20T05:36:44;101503.94;;;22.31
20490;BMP280;10403;54.092;12.122;2022-08-20T05:39:17;101497.66;;;22.32
20490;BMP280;10403;54.092;12.122;2022-08-20T05:41:45;101499.06;;;22.39
20490;BMP280;10403;54.092;12.122;2022-08-20T05:44:12;101500.72;;;22.42
20490;BMP280;10403;54.092;12.122;2022-08-20T05:46:43;101496.41;;;22.39
20490;BMP280;10403;54.092;12.122;2022-08-20T05:49:15;101505.56;;;22.51
20490;BMP280;10403;54.092;12.122;2022-08-20T05:51:43;101496.78;;;22.49
20490;BMP280;10403;54.092;12.122;2022-08-20T05:54:11;101501.09;;;22.51
20490;BMP280;10403;54.092;12.122;2022-08-20T05:56:39;101501.63;;;22.58
20490;BMP280;10403;54.092;12.122;2022-08-20T05:59:08;101505.97;;;22.61
20490;BMP280;10403;54.092;12.122;2022-08-20T06:01:38;101510.25;;;22.63
20490;BMP280;10403;54.092;12.122;2022-08-20T06:04:07;101487.28;;;22.61
20490;BMP280;10403;54.092;12.122;2022-08-20T06:07:01;101494.00;;;22.68
20490;BMP280;10403;54.092;12.122;2022-08-20T06:09:30;101489.47;;;22.70
20490;BMP280;10403;54.092;12.122;2022-08-20T06:12:03;101486.63;;;22.73
20490;BMP280;10403;54.092;12.122;2022-08-20T06:14:32;101482.25;;;22.72
20490;BMP280;10403;54.092;12.122;2022-08-20T06:17:14;101484.81;;;22.73
20490;BMP280;10403;54.092;12.122;2022-08-20T06:19:43;101489.16;;;22.76
20490;BMP280;10403;54.092;12.122;2022-08-20T06:22:14;101487.13;;;22.81
20490;BMP280;10403;54.092;12.122;2022-08-20T06:24:52;101489.47;;;22.87
20490;BMP280;10403;54.092;12.122;2022-08-20T06:27:20;101482.06;;;22.92
20490;BMP280;10403;54.092;12.122;2022-08-20T06:29:49;101498.34;;;23.03
20490;BMP280;10403;54.092;12.122;2022-08-20T06:32:17;101502.31;;;23.12
20490;BMP280;10403;54.092;12.122;2022-08-20T06:34:54;101490.63;;;23.14
20490;BMP280;10403;54.092;12.122;2022-08-20T06:37:27;101506.34;;;23.20
20490;BMP280;10403;54.092;12.122;2022-08-20T06:40:12;101503.97;;;23.14
20490;BMP280;10403;54.092;12.122;2022-08-20T06:42:39;101495.38;;;23.09
20490;BMP280;10403;54.092;12.122;2022-08-20T06:45:19;101498.78;;;23.11
20490;BMP280;10403;54.092;12.122;2022-08-20T06:47:52;101498.03;;;23.09
20490;BMP280;10403;54.092;12.122;2022-08-20T06:50:29;101519.84;;;23.17
20490;BMP280;10403;54.092;12.122;2022-08-20T06:52:58;101518.72;;;23.21
20490;BMP280;10403;54.092;12.122;2022-08-20T06:55:26;101525.47;;;23.29
20490;BMP280;10403;54.092;12.122;2022-08-20T06:57:58;101535.00;;;23.33
20490;BMP280;10403;54.092;12.122;2022-08-20T07:00:27;101511.47;;;23.23
20490;BMP280;10403;54.092;12.122;2022-08-20T07:02:54;101532.34;;;23.33
20490;BMP280;10403;54.092;12.122;2022-08-20T07:05:21;101528.72;;;23.34
20490;BMP280;10403;54.092;12.122;2022-08-20T07:07:48;101538.13;;;23.41
20490;BMP280;10403;54.092;12.122;2022-08-20T07:10:18;101529.34;;;23.39
20490;BMP280;10403;54.092;12.122;2022-08-20T07:12:46;101526.06;;;23.34
20490;BMP280;10403;54.092;12.122;2022-08-20T07:15:19;101535.63;;;23.38
20490;BMP280;10403;54.092;12.122;2022-08-20T07:18:00;101529.84;;;23.30
20490;BMP280;10403;54.092;12.122;2022-08-20T07:20:29;101529.22;;;23.24
20490;BMP280;10403;54.092;12.122;2022-08-20T07:22:58;101524.59;;;23.28
20490;BMP280;10403;54.092;12.122;2022-08-20T07:25:28;101522.16;;;23.23
20490;BMP280;10403;54.092;12.122;2022-08-20T07:28:11;101541.84;;;23.38
20490;BMP280;10403;54.092;12.122;2022-08-20T07:30:39;101543.66;;;23.38
20490;BMP280;10403;54.092;12.122;2022-08-20T07:33:38;101552.31;;;23.41
20490;BMP280;10403;54.092;12.122;2022-08-20T07:36:08;101550.28;;;23.46
20490;BMP280;10403;54.092;12.122;2022-08-20T07:38:36;101552.72;;;23.51
20490;BMP280;10403;54.092;12.122;2022-08-20T07:41:10;101551.03;;;23.50
20490;BMP280;10403;54.092;12.122;2022-08-20T07:43:41;101547.19;;;23.38
20490;BMP280;10403;54.092;12.122;2022-08-20T07:46:11;101564.38;;;23.33
20490;BMP280;10403;54.092;12.122;2022-08-20T07:48:42;101561.13;;;23.28
20490;BMP280;10403;54.092;12.122;2022-08-20T07:51:14;101556.56;;;23.30
20490;BMP280;10403;54.092;12.122;2022-08-20T07:53:45;101559.91;;;23.33
20490;BMP280;10403;54.092;12.122;2022-08-20T07:56:19;101569.41;;;23.39
20490;BMP280;10403;54.092;12.122;2022-08-20T07:58:52;101579.81;;;23.43
20490;BMP280;10403;54.092;12.122;2022-08-20T08:01:24;101572.59;;;23.45
20490;BMP280;10403;54.092;12.122;2022-08-20T08:03:54;101565.38;;;23.47
20490;BMP280;10403;54.092;12.122;2022-08-20T08:06:24;101576.38;;;23.58
20490;BMP280;10403;54.092;12.122;2022-08-20T08:09:09;101568.44;;;23.57
20490;BMP280;10403;54.092;12.122;2022-08-20T08:11:42;101573.63;;;23.60
20490;BMP280;10403;54.092;12.122;2022-08-20T08:14:18;101573.63;;;23.60
20490;BMP280;10403;54.092;12.122;2022-08-20T08:16:49;101577.22;;;23.59
20490;BMP280;10403;54.092;12.122;2022-08-20T08:19:17;101571.25;;;23.54
20490;BMP280;10403;54.092;12.122;2022-08-20T08:21:45;101579.97;;;23.57
20490;BMP280;10403;54.092;12.122;2022-08-20T08:24:12;101567.81;;;23.52
20490;BMP280;10403;54.092;12.122;2022-08-20T08:26:47;101571.19;;;23.55
20490;BMP280;10403;54.092;12.122;2022-08-20T08:29:16;101579.78;;;23.60
20490;BMP280;10403;54.092;12.122;2022-08-20T08:31:43;101587.72;;;23.62
20490;BMP280;10403;54.092;12.122;2022-08-20T08:34:11;101580.34;;;23.67
20490;BMP280;10403;54.092;12.122;2022-08-20T08:36:39;101578.34;;;23.71
20490;BMP280;10403;54.092;12.122;2022-08-20T08:39:06;101586.69;;;23.80
20490;BMP280;10403;54.092;12.122;2022-08-20T08:41:39;101592.50;;;23.88
20490;BMP280;10403;54.092;12.122;2022-08-20T08:44:35;101580.50;;;23.95
20490;BMP280;10403;54.092;12.122;2022-08-20T08:47:18;101580.84;;;24.05
20490;BMP280;10403;54.092;12.122;2022-08-20T08:49:47;101549.97;;;23.99
20490;BMP280;10403;54.092;12.122;2022-08-20T08:52:29;101557.47;;;24.09
20490;BMP280;10403;54.092;12.122;2022-08-20T08:55:03;101565.31;;;24.12
20490;BMP280;10403;54.092;12.122;2022-08-20T08:57:31;101570.06;;;24.07
20490;BMP280;10403;54.092;12.122;2022-08-20T09:00:04;101583.75;;;24.01
20490;BMP280;10403;54.092;12.122;2022-08-20T09:02:33;101544.13;;;23.77
20490;BMP280;10403;54.092;12.122;2022-08-20T09:05:12;101581.69;;;23.90
20490;BMP280;10403;54.092;12.122;2022-08-20T09:07:44;101575.84;;;23.83
20490;BMP280;10403;54.092;12.122;2022-08-20T09:10:13;101575.34;;;23.77
20490;BMP280;10403;54.092;12.122;2022-08-20T09:12:40;101574.78;;;23.70
20490;BMP280;10403;54.092;12.122;2022-08-20T09:15:13;101567.22;;;23.63
20490;BMP280;10403;54.092;12.122;2022-08-20T09:17:41;101577.66;;;23.67
20490;BMP280;10403;54.092;12.122;2022-08-20T09:20:08;101587.56;;;23.81
20490;BMP280;10403;54.092;12.122;2022-08-20T09:22:36;101580.41;;;23.81
20490;BMP280;10403;54.092;12.122;2022-08-20T09:25:04;101572.06;;;23.87
20490;BMP280;10403;54.092;12.122;2022-08-20T09:27:31;101584.47;;;23.88
20490;BMP280;10403;54.092;12.122;2022-08-20T09:29:58;101581.63;;;23.91
20490;BMP280;10403;54.092;12.122;2022-08-20T09:32:26;101576.63;;;23.85
20490;BMP280;10403;54.092;12.122;2022-08-20T09:34:54;101589.47;;;23.94
20490;BMP280;10403;54.092;12.122;2022-08-20T09:37:25;101578.78;;;23.94
20490;BMP280;10403;54.092;12.122;2022-08-20T09:39:53;101591.47;;;24.07
20490;BMP280;10403;54.092;12.122;2022-08-20T09:42:26;101586.25;;;24.19
20490;BMP280;10403;54.092;12.122;2022-08-20T09:44:55;101576.78;;;24.29
20490;BMP280;10403;54.092;12.122;2022-08-20T09:47:23;101562.03;;;24.22
20490;BMP280;10403;54.092;12.122;2022-08-20T09:49:51;101586.00;;;24.40
20490;BMP280;10403;54.092;12.122;2022-08-20T09:52:23;101587.22;;;24.34
20490;BMP280;10403;54.092;12.122;2022-08-20T09:54:55;101572.66;;;24.24
20490;BMP280;10403;54.092;12.122;2022-08-20T09:57:23;101591.22;;;24.27
20490;BMP280;10403;54.092;12.122;2022-08-20T09:59:59;101592.94;;;24.28
20490;BMP280;10403;54.092;12.122;2022-08-20T10:02:27;101589.28;;;24.29
20490;BMP280;10403;54.092;12.122;2022-08-20T10:04:54;101586.88;;;24.24
20490;BMP280;10403;54.092;12.122;2022-08-20T10:07:23;101594.28;;;24.35
20490;BMP280;10403;54.092;12.122;2022-08-20T10:09:50;101590.31;;;24.42
20490;BMP280;10403;54.092;12.122;2022-08-20T10:12:17;101590.22;;;24.44
20490;BMP280;10403;54.092;12.122;2022-08-20T10:14:44;101598.88;;;24.63
20490;BMP280;10403;54.092;12.122;2022-08-20T10:17:11;101590.78;;;24.64
20490;BMP280;10403;54.092;12.122;2022-08-20T10:19:38;101607.13;;;24.74
20490;BMP280;10403;54.092;12.122;2022-08-20T10:22:05;101597.47;;;24.71
20490;BMP280;10403;54.092;12.122;2022-08-20T10:24:33;101602.47;;;24.78
20490;BMP280;10403;54.092;12.122;2022-08-20T10:27:01;101598.41;;;24.70
20490;BMP280;10403;54.092;12.122;2022-08-20T10:29:29;101571.41;;;24.45
20490;BMP280;10403;54.092;12.122;2022-08-20T10:32:12;101606.22;;;24.59
20490;BMP280;10403;54.092;12.122;2022-08-20T10:34:42;101608.72;;;24.62
20490;BMP280;10403;54.092;12.122;2022-08-20T10:37:16;101614.56;;;24.69
20490;BMP280;10403;54.092;12.122;2022-08-20T10:39:45;101614.06;;;24.62
20490;BMP280;10403;54.092;12.122;2022-08-20T10:42:12;101605.81;;;24.51
20490;BMP280;10403;54.092;12.122;2022-08-20T10:44:39;101605.81;;;24.51
20490;BMP280;10403;54.092;12.122;2022-08-20T10:47:26;101605.97;;;24.64
20490;BMP280;10403;54.092;12.122;2022-08-20T10:49:56;101594.78;;;24.71
20490;BMP280;10403;54.092;12.122;2022-08-20T10:52:25;101593.28;;;24.82
20490;BMP280;10403;54.092;12.122;2022-08-20T10:54:53;101594.09;;;24.98
20490;BMP280;10403;54.092;12.122;2022-08-20T10:57:29;101592.97;;;25.02
20490;BMP280;10403;54.092;12.122;2022-08-20T10:59:58;101596.25;;;25.07
20490;BMP280;10403;54.092;12.122;2022-08-20T11:02:27;101599.22;;;25.17
20490;BMP280;10403;54.092;12.122;2022-08-20T11:04:55;101597.59;;;25.14
20490;BMP280;10403;54.092;12.122;2022-08-20T11:07:32;101602.94;;;25.14
20490;BMP280;10403;54.092;12.122;2022-08-20T11:10:21;101609.06;;;25.16
20490;BMP280;10403;54.092;12.122;2022-08-20T11:12:48;101608.22;;;25.16
20490;BMP280;10403;54.092;12.122;2022-08-20T11:15:15;101602.94;;;25.14
20490;BMP280;10403;54.092;12.122;2022-08-20T11:17:43;101619.78;;;25.16
20490;BMP280;10403;54.092;12.122;2022-08-20T11:20:16;101611.72;;;25.02
20490;BMP280;10403;54.092;12.122;2022-08-20T11:22:44;101613.63;;;25.00
20490;BMP280;10403;54.092;12.122;2022-08-20T11:25:11;101620.22;;;24.94
20490;BMP280;10403;54.092;12.122;2022-08-20T11:27:43;101631.25;;;24.88
20490;BMP280;10403;54.092;12.122;2022-08-20T11:30:20;101621.88;;;24.81
20490;BMP280;10403;54.092;12.122;2022-08-20T11:32:48;101627.31;;;24.80
20490;BMP280;10403;54.092;12.122;2022-08-20T11:35:15;101627.31;;;24.80
20490;BMP280;10403;54.092;12.122;2022-08-20T11:38:03;101629.31;;;24.76
20490;BMP280;10403;54.092;12.122;2022-08-20T11:40:30;101626.91;;;24.71
20490;BMP280;10403;54.092;12.122;2022-08-20T11:42:57;101617.44;;;24.66
20490;BMP280;10403;54.092;12.122;2022-08-20T11:45:41;101623.19;;;24.74
20490;BMP280;10403;54.092;12.122;2022-08-20T11:48:09;101621.53;;;24.87
20490;BMP280;10403;54.092;12.122;2022-08-20T11:50:36;101632.09;;;25.04
20490;BMP280;10403;54.092;12.122;2022-08-20T11:53:03;101620.34;;;25.07
20490;BMP280;10403;54.092;12.122;2022-08-20T11:55:30;101638.88;;;25.10
20490;BMP280;10403;54.092;12.122;2022-08-20T11:57:58;101634.88;;;25.03
20490;BMP280;10403;54.092;12.122;2022-08-20T12:00:47;101644.34;;;25.08
20490;BMP280;10403;54.092;12.122;2022-08-20T12:03:14;101646.03;;;24.95
20490;BMP280;10403;54.092;12.122;2022-08-20T12:05:44;101639.91;;;24.93
20490;BMP280;10403;54.092;12.122;2022-08-20T12:08:14;101627.53;;;24.91
20490;BMP280;10403;54.092;12.122;2022-08-20T12:11:00;101635.50;;;24.92
20490;BMP280;10403;54.092;12.122;2022-08-20T12:13:33;101627.31;;;24.95
20490;BMP280;10403;54.092;12.122;2022-08-20T12:16:17;101633.91;;;25.04
20490;BMP280;10403;54.092;12.122;2022-08-20T12:18:45;101646.16;;;25.08
20490;BMP280;10403;54.092;12.122;2022-08-20T12:21:13;101640.06;;;25.06
20490;BMP280;10403;54.092;12.122;2022-08-20T12:23:40;101647.88;;;25.09
20490;BMP280;10403;54.092;12.122;2022-08-20T12:26:08;101630.28;;;25.05
20490;BMP280;10403;54.092;12.122;2022-08-20T12:28:36;101631.72;;;25.11
20490;BMP280;10403;54.092;12.122;2022-08-20T12:31:03;101632.03;;;25.20
20490;BMP280;10403;54.092;12.122;2022-08-20T12:33:30;101608.47;;;25.11
20490;BMP280;10403;54.092;12.122;2022-08-20T12:35:57;101621.41;;;25.33
20490;BMP280;10403;54.092;12.122;2022-08-20T12:38:25;101643.69;;;25.48
20490;BMP280;10403;54.092;12.122;2022-08-20T12:40:52;101613.09;;;25.23
20490;BMP280;10403;54.092;12.122;2022-08-20T12:43:19;101648.03;;;25.36
20490;BMP280;10403;54.092;12.122;2022-08-20T12:45:51;101639.31;;;25.32
20490;BMP280;10403;54.092;12.122;2022-08-20T12:48:18;101647.81;;;25.39
20490;BMP280;10403;54.092;12.122;2022-08-20T12:50:47;101645.81;;;25.42
20490;BMP280;10403;54.092;12.122;2022-08-20T12:53:16;101645.06;;;25.40
20490;BMP280;10403;54.092;12.122;2022-08-20T12:55:43;101643.53;;;25.36
20490;BMP280;10403;54.092;12.122;2022-08-20T12:58:10;101597.78;;;25.11
20490;BMP280;10403;54.092;12.122;2022-08-20T13:00:42;101644.19;;;25.40
20490;BMP280;10403;54.092;12.122;2022-08-20T13:03:20;101650.03;;;25.32
20490;BMP280;10403;54.092;12.122;2022-08-20T13:05:48;101642.94;;;25.31
20490;BMP280;10403;54.092;12.122;2022-08-20T13:08:15;101642.25;;;25.28
20490;BMP280;10403;54.092;12.122;2022-08-20T13:10:44;101635.09;;;25.28
20490;BMP280;10403;54.092;12.122;2022-08-20T13:13:15;101635.75;;;25.32
20490;BMP280;10403;54.092;12.122;2022-08-20T13:15:47;101646.38;;;25.33
20490;BMP280;10403;54.092;12.122;2022-08-20T13:18:15;101640.75;;;25.24
20490;BMP280;10403;54.092;12.122;2022-08-20T13:20:42;101628.00;;;25.13
20490;BMP280;10403;54.092;12.122;2022-08-20T13:23:10;101640.44;;;25.14
20490;BMP280;10403;54.092;12.122;2022-08-20T13:25:37;101647.44;;;25.17
20490;BMP280;10403;54.092;12.122;2022-08-20T13:28:04;101628.09;;;25.12
20490;BMP280;10403;54.092;12.122;2022-08-20T13:30:34;101642.91;;;25.17
20490;BMP280;10403;54.092;12.122;2022-08-20T13:33:04;101640.53;;;25.13
20490;BMP280;10403;54.092;12.122;2022-08-20T13:35:31;101627.00;;;25.00
20490;BMP280;10403;54.092;12.122;2022-08-20T13:37:58;101640.41;;;25.00
20490;BMP280;10403;54.092;12.122;2022-08-20T13:40:27;101638.75;;;24.97
20490;BMP280;10403;54.092;12.122;2022-08-20T13:42:54;101627.53;;;24.91
20490;BMP280;10403;54.092;12.122;2022-08-20T13:45:21;101627.09;;;24.98
20490;BMP280;10403;54.092;12.122;2022-08-20T13:47:53;101625.19;;;25.00
20490;BMP280;10403;54.092;12.122;2022-08-20T13:50:24;101628.41;;;24.91
20490;BMP280;10403;54.092;12.122;2022-08-20T13:52:51;101622.81;;;24.80
20490;BMP280;10403;54.092;12.122;2022-08-20T13:55:21;101628.88;;;24.84
20490;BMP280;10403;54.092;12.122;2022-08-20T13:57:50;101632.50;;;24.83
20490;BMP280;10403;54.092;12.122;2022-08-20T14:00:24;101620.53;;;24.74
20490;BMP280;10403;54.092;12.122;2022-08-20T14:02:59;101633.53;;;24.80
20490;BMP280;10403;54.092;12.122;2022-08-20T14:05:28;101634.22;;;24.84
20490;BMP280;10403;54.092;12.122;2022-08-20T14:08:14;101620.06;;;24.82
20490;BMP280;10403;54.092;12.122;2022-08-20T14:10:43;101624.84;;;24.91
20490;BMP280;10403;54.092;12.122;2022-08-20T14:13:12;101616.16;;;24.87